sensor_id;sensor_type;location;lat;lon;timestamp;P1;durP1;ratioP1;P2;durP2;ratioP2
142;SDS011;63667;49.046;8.468;2022-10-17T00:00:33;17.37;;;5.73;;
142;SDS011;63667;49.046;8.468;2022-10-17T00:03:00;19.20;;;6.93;;
142;SDS011;63667;49.046;8.468;2022-10-17T00:05:26;13.53;;;6.47;;
142;SDS011;63667;49.046;8.468;2022-10-17T00:07:52;11.43;;;6.53;;
142;SDS011;63667;49.046;8.468;2022-10-17T00:10:19;19.80;;;5.90;;
142;SDS011;63667;49.046;8.468;2022-10-17T00:12:46;7.63;;;5.53;;
142;SDS011;63667;49.046;8.468;2022-10-17T00:15:16;10.40;;;6.20;;
142;SDS011;63667;49.046;8.468;2022-10-17T00:17:46;13.30;;;6.10;;
142;SDS011;63667;49.046;8.468;2022-10-17T00:20:13;6.37;;;5.27;;
142;SDS011;63667;49.046;8.468;2022-10-17T00:22:40;12.40;;;6.70;;
142;SDS011;63667;49.046;8.468;2022-10-17T00:25:07;11.10;;;5.80;;
142;SDS011;63667;49.046;8.468;2022-10-17T00:27:34;13.40;;;7.20;;
142;SDS011;63667;49.046;8.468;2022-10-17T00:30:02;18.80;;;7.13;;
142;SDS011;63667;49.046;8.468;2022-10-17T00:32:31;30.00;;;9.50;;
142;SDS011;63667;49.046;8.468;2022-10-17T00:34:57;20.80;;;8.10;;
142;SDS011;63667;49.046;8.468;2022-10-17T00:37:24;15.77;;;7.73;;
142;SDS011;63667;49.046;8.468;2022-10-17T00:39:50;24.90;;;7.50;;
142;SDS011;63667;49.046;8.468;2022-10-17T00:42:16;20.33;;;8.07;;
142;SDS011;63667;49.046;8.468;2022-10-17T00:47:20;19.30;;;7.97;;
142;SDS011;63667;49.046;8.468;2022-10-17T00:49:48;19.70;;;8.40;;
142;SDS011;63667;49.046;8.468;2022-10-17T00:52:14;19.53;;;7.80;;
142;SDS011;63667;49.046;8.468;2022-10-17T00:54:47;17.37;;;7.60;;
142;SDS011;63667;49.046;8.468;2022-10-17T00:57:16;12.73;;;7.23;;
142;SDS011;63667;49.046;8.468;2022-10-17T00:59:43;17.90;;;7.73;;
142;SDS011;63667;49.046;8.468;2022-10-17T01:02:15;26.70;;;7.83;;
142;SDS011;63667;49.046;8.468;2022-10-17T01:04:43;22.40;;;6.93;;
142;SDS011;63667;49.046;8.468;2022-10-17T01:07:12;16.70;;;7.00;;
142;SDS011;63667;49.046;8.468;2022-10-17T01:09:38;14.10;;;6.30;;
142;SDS011;63667;49.046;8.468;2022-10-17T01:30:58;6.63;;;5.60;;
142;SDS011;63667;49.046;8.468;2022-10-17T01:33:43;8.93;;;5.60;;
142;SDS011;63667;49.046;8.468;2022-10-17T01:36:11;7.30;;;4.63;;
142;SDS011;63667;49.046;8.468;2022-10-17T01:38:43;10.77;;;5.90;;
142;SDS011;63667;49.046;8.468;2022-10-17T01:44:06;10.37;;;5.90;;
142;SDS011;63667;49.046;8.468;2022-10-17T01:46:36;12.60;;;5.60;;
142;SDS011;63667;49.046;8.468;2022-10-17T01:49:04;11.73;;;5.70;;
142;SDS011;63667;49.046;8.468;2022-10-17T01:51:35;13.53;;;5.70;;
142;SDS011;63667;49.046;8.468;2022-10-17T01:56:45;8.73;;;4.80;;
142;SDS011;63667;49.046;8.468;2022-10-17T01:59:19;8.33;;;5.47;;
142;SDS011;63667;49.046;8.468;2022-10-17T02:01:49;14.80;;;5.67;;
142;SDS011;63667;49.046;8.468;2022-10-17T02:04:18;7.60;;;5.43;;
142;SDS011;63667;49.046;8.468;2022-10-17T02:06:44;7.77;;;4.73;;
142;SDS011;63667;49.046;8.468;2022-10-17T02:09:18;10.37;;;5.53;;
142;SDS011;63667;49.046;8.468;2022-10-17T02:12:31;18.33;;;5.83;;
142;SDS011;63667;49.046;8.468;2022-10-17T02:17:39;8.87;;;5.73;;
142;SDS011;63667;49.046;8.468;2022-10-17T02:23:12;15.60;;;6.33;;
142;SDS011;63667;49.046;8.468;2022-10-17T02:31:28;10.67;;;5.60;;
142;SDS011;63667;49.046;8.468;2022-10-17T02:34:14;8.83;;;5.10;;
142;SDS011;63667;49.046;8.468;2022-10-17T02:36:50;8.90;;;5.73;;
142;SDS011;63667;49.046;8.468;2022-10-17T02:39:20;8.30;;;4.70;;
142;SDS011;63667;49.046;8.468;2022-10-17T02:41:48;8.50;;;4.83;;
142;SDS011;63667;49.046;8.468;2022-10-17T02:44:16;22.80;;;5.47;;
142;SDS011;63667;49.046;8.468;2022-10-17T02:46:44;8.23;;;4.30;;
142;SDS011;63667;49.046;8.468;2022-10-17T02:49:19;7.97;;;5.00;;
142;SDS011;63667;49.046;8.468;2022-10-17T02:54:31;7.47;;;5.00;;
142;SDS011;63667;49.046;8.468;2022-10-17T02:59:53;13.73;;;4.93;;
142;SDS011;63667;49.046;8.468;2022-10-17T03:02:22;8.20;;;5.10;;
142;SDS011;63667;49.046;8.468;2022-10-17T03:04:49;10.27;;;5.10;;
142;SDS011;63667;49.046;8.468;2022-10-17T03:07:15;9.23;;;5.13;;
142;SDS011;63667;49.046;8.468;2022-10-17T03:09:41;15.13;;;4.97;;
142;SDS011;63667;49.046;8.468;2022-10-17T03:12:07;9.87;;;4.70;;
142;SDS011;63667;49.046;8.468;2022-10-17T03:14:33;12.70;;;4.77;;
142;SDS011;63667;49.046;8.468;2022-10-17T03:16:59;12.70;;;4.97;;
142;SDS011;63667;49.046;8.468;2022-10-17T03:19:26;11.53;;;5.47;;
142;SDS011;63667;49.046;8.468;2022-10-17T03:21:52;7.50;;;5.40;;
142;SDS011;63667;49.046;8.468;2022-10-17T03:24:18;8.90;;;4.93;;
142;SDS011;63667;49.046;8.468;2022-10-17T03:26:44;10.10;;;4.90;;
142;SDS011;63667;49.046;8.468;2022-10-17T03:29:10;9.43;;;5.33;;
142;SDS011;63667;49.046;8.468;2022-10-17T03:31:38;11.30;;;5.23;;
142;SDS011;63667;49.046;8.468;2022-10-17T03:34:04;18.70;;;5.17;;
142;SDS011;63667;49.046;8.468;2022-10-17T03:36:30;9.70;;;4.90;;
142;SDS011;63667;49.046;8.468;2022-10-17T03:38:56;12.97;;;5.37;;
142;SDS011;63667;49.046;8.468;2022-10-17T03:41:22;14.10;;;5.30;;
142;SDS011;63667;49.046;8.468;2022-10-17T03:43:49;13.80;;;5.07;;
142;SDS011;63667;49.046;8.468;2022-10-17T03:46:18;11.17;;;5.07;;
142;SDS011;63667;49.046;8.468;2022-10-17T03:48:44;12.37;;;5.50;;
142;SDS011;63667;49.046;8.468;2022-10-17T03:51:10;7.07;;;5.10;;
142;SDS011;63667;49.046;8.468;2022-10-17T03:53:37;8.83;;;5.20;;
142;SDS011;63667;49.046;8.468;2022-10-17T03:58:43;20.13;;;4.93;;
142;SDS011;63667;49.046;8.468;2022-10-17T04:01:10;13.23;;;5.30;;
142;SDS011;63667;49.046;8.468;2022-10-17T04:03:38;10.00;;;5.60;;
142;SDS011;63667;49.046;8.468;2022-10-17T04:06:05;12.73;;;5.60;;
142;SDS011;63667;49.046;8.468;2022-10-17T04:08:32;13.50;;;5.33;;
142;SDS011;63667;49.046;8.468;2022-10-17T04:11:00;6.60;;;4.53;;
142;SDS011;63667;49.046;8.468;2022-10-17T04:13:27;8.63;;;4.50;;
142;SDS011;63667;49.046;8.468;2022-10-17T04:16:01;7.70;;;5.20;;
142;SDS011;63667;49.046;8.468;2022-10-17T04:18:29;9.00;;;4.77;;
142;SDS011;63667;49.046;8.468;2022-10-17T04:20:56;5.83;;;4.23;;
142;SDS011;63667;49.046;8.468;2022-10-17T04:23:22;11.90;;;4.60;;
142;SDS011;63667;49.046;8.468;2022-10-17T04:25:48;5.20;;;4.50;;
142;SDS011;63667;49.046;8.468;2022-10-17T04:28:14;23.70;;;4.50;;
142;SDS011;63667;49.046;8.468;2022-10-17T04:30:40;14.33;;;4.70;;
142;SDS011;63667;49.046;8.468;2022-10-17T04:33:06;12.53;;;4.80;;
142;SDS011;63667;49.046;8.468;2022-10-17T04:35:32;7.63;;;4.30;;
142;SDS011;63667;49.046;8.468;2022-10-17T04:38:00;17.27;;;4.40;;
142;SDS011;63667;49.046;8.468;2022-10-17T04:40:26;7.50;;;4.10;;
142;SDS011;63667;49.046;8.468;2022-10-17T04:42:52;19.23;;;4.77;;
142;SDS011;63667;49.046;8.468;2022-10-17T04:45:18;14.27;;;4.63;;
142;SDS011;63667;49.046;8.468;2022-10-17T04:47:44;8.00;;;5.37;;
142;SDS011;63667;49.046;8.468;2022-10-17T04:50:10;6.50;;;5.20;;
142;SDS011;63667;49.046;8.468;2022-10-17T04:52:37;12.53;;;4.63;;
142;SDS011;63667;49.046;8.468;2022-10-17T04:55:06;12.60;;;5.23;;
142;SDS011;63667;49.046;8.468;2022-10-17T04:57:35;7.13;;;5.10;;
142;SDS011;63667;49.046;8.468;2022-10-17T05:00:02;8.67;;;4.90;;
142;SDS011;63667;49.046;8.468;2022-10-17T05:02:28;20.80;;;4.87;;
142;SDS011;63667;49.046;8.468;2022-10-17T05:04:54;14.77;;;4.80;;
142;SDS011;63667;49.046;8.468;2022-10-17T05:07:21;10.40;;;5.60;;
142;SDS011;63667;49.046;8.468;2022-10-17T05:09:47;22.37;;;7.73;;
142;SDS011;63667;49.046;8.468;2022-10-17T05:12:13;18.93;;;8.30;;
142;SDS011;63667;49.046;8.468;2022-10-17T05:14:39;23.03;;;8.30;;
142;SDS011;63667;49.046;8.468;2022-10-17T05:17:05;17.33;;;7.63;;
142;SDS011;63667;49.046;8.468;2022-10-17T05:19:31;13.67;;;7.90;;
142;SDS011;63667;49.046;8.468;2022-10-17T05:21:57;14.37;;;6.50;;
142;SDS011;63667;49.046;8.468;2022-10-17T05:24:23;12.97;;;6.70;;
142;SDS011;63667;49.046;8.468;2022-10-17T05:26:49;11.30;;;6.83;;
142;SDS011;63667;49.046;8.468;2022-10-17T05:29:16;13.73;;;5.73;;
142;SDS011;63667;49.046;8.468;2022-10-17T05:31:42;10.40;;;5.57;;
142;SDS011;63667;49.046;8.468;2022-10-17T05:34:11;11.83;;;5.83;;
142;SDS011;63667;49.046;8.468;2022-10-17T05:36:38;13.03;;;5.13;;
142;SDS011;63667;49.046;8.468;2022-10-17T05:39:04;16.80;;;5.23;;
142;SDS011;63667;49.046;8.468;2022-10-17T05:41:30;10.80;;;4.97;;
142;SDS011;63667;49.046;8.468;2022-10-17T05:43:57;14.20;;;4.80;;
142;SDS011;63667;49.046;8.468;2022-10-17T05:46:23;18.10;;;5.63;;
142;SDS011;63667;49.046;8.468;2022-10-17T05:48:49;24.23;;;5.77;;
142;SDS011;63667;49.046;8.468;2022-10-17T05:51:15;21.67;;;5.77;;
142;SDS011;63667;49.046;8.468;2022-10-17T05:53:41;8.93;;;4.80;;
142;SDS011;63667;49.046;8.468;2022-10-17T05:56:09;7.90;;;4.97;;
142;SDS011;63667;49.046;8.468;2022-10-17T05:58:42;9.60;;;5.20;;
142;SDS011;63667;49.046;8.468;2022-10-17T06:01:10;11.30;;;4.70;;
142;SDS011;63667;49.046;8.468;2022-10-17T06:03:37;11.47;;;5.17;;
142;SDS011;63667;49.046;8.468;2022-10-17T06:06:07;10.03;;;4.90;;
142;SDS011;63667;49.046;8.468;2022-10-17T06:08:37;9.90;;;5.17;;
142;SDS011;63667;49.046;8.468;2022-10-17T06:11:04;6.97;;;5.10;;
142;SDS011;63667;49.046;8.468;2022-10-17T06:13:30;16.03;;;5.30;;
142;SDS011;63667;49.046;8.468;2022-10-17T06:15:57;12.07;;;4.90;;
142;SDS011;63667;49.046;8.468;2022-10-17T06:18:23;7.10;;;4.83;;
142;SDS011;63667;49.046;8.468;2022-10-17T06:20:51;12.77;;;5.60;;
142;SDS011;63667;49.046;8.468;2022-10-17T06:23:17;8.67;;;5.60;;
142;SDS011;63667;49.046;8.468;2022-10-17T06:25:44;12.83;;;5.60;;
142;SDS011;63667;49.046;8.468;2022-10-17T06:28:10;14.03;;;5.30;;
142;SDS011;63667;49.046;8.468;2022-10-17T06:30:38;9.63;;;5.30;;
142;SDS011;63667;49.046;8.468;2022-10-17T06:33:05;20.43;;;5.10;;
142;SDS011;63667;49.046;8.468;2022-10-17T06:35:31;11.40;;;4.73;;
142;SDS011;63667;49.046;8.468;2022-10-17T06:37:57;16.20;;;4.43;;
142;SDS011;63667;49.046;8.468;2022-10-17T06:40:23;11.83;;;5.10;;
142;SDS011;63667;49.046;8.468;2022-10-17T06:42:49;9.30;;;4.77;;
142;SDS011;63667;49.046;8.468;2022-10-17T06:45:16;20.67;;;5.40;;
142;SDS011;63667;49.046;8.468;2022-10-17T06:47:42;17.03;;;5.33;;
142;SDS011;63667;49.046;8.468;2022-10-17T06:50:08;20.83;;;6.27;;
142;SDS011;63667;49.046;8.468;2022-10-17T06:52:34;8.40;;;5.50;;
142;SDS011;63667;49.046;8.468;2022-10-17T06:55:00;18.63;;;6.10;;
142;SDS011;63667;49.046;8.468;2022-10-17T06:57:26;8.33;;;6.17;;
142;SDS011;63667;49.046;8.468;2022-10-17T06:59:52;10.03;;;5.03;;
142;SDS011;63667;49.046;8.468;2022-10-17T07:02:19;9.10;;;4.83;;
142;SDS011;63667;49.046;8.468;2022-10-17T07:04:48;17.93;;;5.70;;
142;SDS011;63667;49.046;8.468;2022-10-17T07:07:14;9.93;;;5.43;;
142;SDS011;63667;49.046;8.468;2022-10-17T07:09:41;6.50;;;5.10;;
142;SDS011;63667;49.046;8.468;2022-10-17T07:12:07;15.60;;;5.53;;
142;SDS011;63667;49.046;8.468;2022-10-17T07:14:33;12.13;;;5.83;;
142;SDS011;63667;49.046;8.468;2022-10-17T07:17:00;12.83;;;5.87;;
142;SDS011;63667;49.046;8.468;2022-10-17T07:19:26;18.47;;;6.57;;
142;SDS011;63667;49.046;8.468;2022-10-17T07:21:53;9.60;;;6.30;;
142;SDS011;63667;49.046;8.468;2022-10-17T07:24:19;16.17;;;6.17;;
142;SDS011;63667;49.046;8.468;2022-10-17T07:26:45;10.73;;;6.70;;
142;SDS011;63667;49.046;8.468;2022-10-17T07:29:11;16.47;;;7.13;;
142;SDS011;63667;49.046;8.468;2022-10-17T07:31:38;21.23;;;7.10;;
142;SDS011;63667;49.046;8.468;2022-10-17T07:34:04;15.57;;;6.67;;
142;SDS011;63667;49.046;8.468;2022-10-17T07:36:30;16.40;;;6.73;;
142;SDS011;63667;49.046;8.468;2022-10-17T07:38:56;9.60;;;6.13;;
142;SDS011;63667;49.046;8.468;2022-10-17T07:41:22;11.30;;;5.80;;
142;SDS011;63667;49.046;8.468;2022-10-17T07:43:48;10.27;;;6.60;;
142;SDS011;63667;49.046;8.468;2022-10-17T07:46:15;19.10;;;5.90;;
142;SDS011;63667;49.046;8.468;2022-10-17T07:48:41;21.33;;;6.20;;
142;SDS011;63667;49.046;8.468;2022-10-17T07:51:08;25.03;;;7.00;;
142;SDS011;63667;49.046;8.468;2022-10-17T07:53:36;27.20;;;6.77;;
142;SDS011;63667;49.046;8.468;2022-10-17T07:56:06;14.20;;;6.73;;
142;SDS011;63667;49.046;8.468;2022-10-17T07:58:33;12.00;;;6.20;;
142;SDS011;63667;49.046;8.468;2022-10-17T08:01:01;14.50;;;5.70;;
142;SDS011;63667;49.046;8.468;2022-10-17T08:03:29;15.77;;;6.37;;
142;SDS011;63667;49.046;8.468;2022-10-17T08:05:59;12.43;;;6.07;;
142;SDS011;63667;49.046;8.468;2022-10-17T08:08:26;18.03;;;6.23;;
142;SDS011;63667;49.046;8.468;2022-10-17T08:10:53;19.70;;;6.33;;
142;SDS011;63667;49.046;8.468;2022-10-17T08:13:21;19.50;;;6.30;;
142;SDS011;63667;49.046;8.468;2022-10-17T08:15:47;14.97;;;5.90;;
142;SDS011;63667;49.046;8.468;2022-10-17T08:18:14;10.20;;;6.30;;
142;SDS011;63667;49.046;8.468;2022-10-17T08:20:41;10.53;;;5.53;;
142;SDS011;63667;49.046;8.468;2022-10-17T08:23:07;12.47;;;6.10;;
142;SDS011;63667;49.046;8.468;2022-10-17T08:25:33;12.90;;;5.30;;
142;SDS011;63667;49.046;8.468;2022-10-17T08:28:02;17.70;;;5.90;;
142;SDS011;63667;49.046;8.468;2022-10-17T08:30:28;13.10;;;6.07;;
142;SDS011;63667;49.046;8.468;2022-10-17T08:32:55;14.50;;;6.67;;
142;SDS011;63667;49.046;8.468;2022-10-17T08:35:21;15.97;;;6.00;;
142;SDS011;63667;49.046;8.468;2022-10-17T08:37:48;9.50;;;5.83;;
142;SDS011;63667;49.046;8.468;2022-10-17T08:40:24;16.90;;;6.20;;
142;SDS011;63667;49.046;8.468;2022-10-17T08:45:53;11.63;;;6.23;;
142;SDS011;63667;49.046;8.468;2022-10-17T08:48:25;10.83;;;5.93;;
142;SDS011;63667;49.046;8.468;2022-10-17T08:51:14;14.43;;;5.70;;
142;SDS011;63667;49.046;8.468;2022-10-17T08:53:49;16.80;;;6.40;;
142;SDS011;63667;49.046;8.468;2022-10-17T08:56:54;15.20;;;6.70;;
142;SDS011;63667;49.046;8.468;2022-10-17T08:59:20;9.47;;;5.63;;
142;SDS011;63667;49.046;8.468;2022-10-17T09:02:02;9.17;;;5.70;;
142;SDS011;63667;49.046;8.468;2022-10-17T09:07:29;21.50;;;6.20;;
142;SDS011;63667;49.046;8.468;2022-10-17T09:18:26;14.73;;;5.63;;
142;SDS011;63667;49.046;8.468;2022-10-17T09:20:55;14.27;;;6.33;;
142;SDS011;63667;49.046;8.468;2022-10-17T09:23:40;11.87;;;5.93;;
142;SDS011;63667;49.046;8.468;2022-10-17T09:26:13;16.40;;;5.70;;
142;SDS011;63667;49.046;8.468;2022-10-17T09:28:40;10.37;;;5.80;;
142;SDS011;63667;49.046;8.468;2022-10-17T09:31:11;22.87;;;7.47;;
142;SDS011;63667;49.046;8.468;2022-10-17T09:33:42;14.27;;;5.93;;
142;SDS011;63667;49.046;8.468;2022-10-17T09:36:13;14.10;;;6.97;;
142;SDS011;63667;49.046;8.468;2022-10-17T09:38:46;20.70;;;5.23;;
142;SDS011;63667;49.046;8.468;2022-10-17T09:41:17;10.37;;;6.00;;
142;SDS011;63667;49.046;8.468;2022-10-17T09:43:48;13.93;;;5.40;;
142;SDS011;63667;49.046;8.468;2022-10-17T09:46:31;15.00;;;5.20;;
142;SDS011;63667;49.046;8.468;2022-10-17T09:49:13;14.53;;;5.47;;
142;SDS011;63667;49.046;8.468;2022-10-17T09:51:44;9.10;;;5.30;;
142;SDS011;63667;49.046;8.468;2022-10-17T09:57:13;16.87;;;5.30;;
142;SDS011;63667;49.046;8.468;2022-10-17T09:59:42;12.80;;;5.43;;
142;SDS011;63667;49.046;8.468;2022-10-17T10:02:20;14.57;;;4.80;;
142;SDS011;63667;49.046;8.468;2022-10-17T10:04:55;31.33;;;5.80;;
142;SDS011;63667;49.046;8.468;2022-10-17T10:07:22;16.70;;;5.47;;
142;SDS011;63667;49.046;8.468;2022-10-17T10:09:53;10.93;;;5.50;;
142;SDS011;63667;49.046;8.468;2022-10-17T10:12:24;10.60;;;5.23;;
142;SDS011;63667;49.046;8.468;2022-10-17T10:14:50;10.00;;;5.10;;
142;SDS011;63667;49.046;8.468;2022-10-17T10:17:51;12.47;;;5.57;;
142;SDS011;63667;49.046;8.468;2022-10-17T10:23:14;15.03;;;5.53;;
142;SDS011;63667;49.046;8.468;2022-10-17T10:25:51;10.30;;;5.27;;
142;SDS011;63667;49.046;8.468;2022-10-17T10:28:20;13.87;;;5.17;;
142;SDS011;63667;49.046;8.468;2022-10-17T10:30:50;17.70;;;5.63;;
142;SDS011;63667;49.046;8.468;2022-10-17T10:33:18;12.60;;;4.80;;
142;SDS011;63667;49.046;8.468;2022-10-17T10:35:56;7.30;;;5.27;;
142;SDS011;63667;49.046;8.468;2022-10-17T10:38:28;16.03;;;5.07;;
142;SDS011;63667;49.046;8.468;2022-10-17T10:41:00;8.00;;;5.00;;
142;SDS011;63667;49.046;8.468;2022-10-17T10:43:34;11.27;;;5.83;;
142;SDS011;63667;49.046;8.468;2022-10-17T10:46:04;8.47;;;5.43;;
142;SDS011;63667;49.046;8.468;2022-10-17T10:48:48;8.43;;;4.73;;
142;SDS011;63667;49.046;8.468;2022-10-17T10:51:19;6.50;;;4.23;;
142;SDS011;63667;49.046;8.468;2022-10-17T10:56:43;20.57;;;4.90;;
142;SDS011;63667;49.046;8.468;2022-10-17T10:59:19;15.93;;;4.70;;
142;SDS011;63667;49.046;8.468;2022-10-17T11:01:58;7.67;;;4.57;;
142;SDS011;63667;49.046;8.468;2022-10-17T11:04:54;12.53;;;5.53;;
142;SDS011;63667;49.046;8.468;2022-10-17T11:07:38;12.83;;;4.90;;
142;SDS011;63667;49.046;8.468;2022-10-17T11:12:58;10.43;;;5.03;;
142;SDS011;63667;49.046;8.468;2022-10-17T11:18:02;13.73;;;4.40;;
142;SDS011;63667;49.046;8.468;2022-10-17T11:23:33;4.70;;;4.17;;
142;SDS011;63667;49.046;8.468;2022-10-17T11:26:09;11.47;;;4.50;;
142;SDS011;63667;49.046;8.468;2022-10-17T11:28:55;8.23;;;4.53;;
142;SDS011;63667;49.046;8.468;2022-10-17T11:31:43;10.00;;;4.50;;
142;SDS011;63667;49.046;8.468;2022-10-17T11:34:15;8.97;;;5.00;;
142;SDS011;63667;49.046;8.468;2022-10-17T11:36:49;11.67;;;4.53;;
142;SDS011;63667;49.046;8.468;2022-10-17T11:39:26;7.10;;;4.60;;
142;SDS011;63667;49.046;8.468;2022-10-17T11:42:03;5.70;;;4.10;;
142;SDS011;63667;49.046;8.468;2022-10-17T11:44:38;5.50;;;4.30;;
142;SDS011;63667;49.046;8.468;2022-10-17T11:49:39;9.40;;;4.40;;
142;SDS011;63667;49.046;8.468;2022-10-17T11:54:55;9.27;;;4.80;;
142;SDS011;63667;49.046;8.468;2022-10-17T12:05:27;9.23;;;4.70;;
142;SDS011;63667;49.046;8.468;2022-10-17T12:08:08;9.50;;;4.40;;
142;SDS011;63667;49.046;8.468;2022-10-17T12:10:57;7.27;;;4.40;;
142;SDS011;63667;49.046;8.468;2022-10-17T12:16:36;8.50;;;4.10;;
142;SDS011;63667;49.046;8.468;2022-10-17T12:21:26;11.40;;;4.60;;
142;SDS011;63667;49.046;8.468;2022-10-17T12:23:53;14.10;;;4.70;;
142;SDS011;63667;49.046;8.468;2022-10-17T12:26:26;9.40;;;4.10;;
142;SDS011;63667;49.046;8.468;2022-10-17T12:28:54;8.77;;;4.63;;
142;SDS011;63667;49.046;8.468;2022-10-17T12:31:22;5.83;;;3.90;;
142;SDS011;63667;49.046;8.468;2022-10-17T12:33:51;6.40;;;4.03;;
142;SDS011;63667;49.046;8.468;2022-10-17T12:49:24;15.77;;;4.57;;
142;SDS011;63667;49.046;8.468;2022-10-17T12:54:49;9.00;;;4.03;;
142;SDS011;63667;49.046;8.468;2022-10-17T12:57:28;9.30;;;4.50;;
142;SDS011;63667;49.046;8.468;2022-10-17T13:00:02;9.97;;;4.90;;
142;SDS011;63667;49.046;8.468;2022-10-17T13:02:38;6.67;;;4.33;;
142;SDS011;63667;49.046;8.468;2022-10-17T13:05:07;6.60;;;4.40;;
142;SDS011;63667;49.046;8.468;2022-10-17T13:07:40;4.70;;;4.23;;
142;SDS011;63667;49.046;8.468;2022-10-17T13:10:21;5.40;;;4.33;;
142;SDS011;63667;49.046;8.468;2022-10-17T13:12:50;9.33;;;4.17;;
142;SDS011;63667;49.046;8.468;2022-10-17T13:15:19;6.90;;;3.80;;
142;SDS011;63667;49.046;8.468;2022-10-17T13:17:53;4.60;;;4.27;;
142;SDS011;63667;49.046;8.468;2022-10-17T13:20:22;5.40;;;4.17;;
142;SDS011;63667;49.046;8.468;2022-10-17T13:22:53;6.53;;;3.53;;
142;SDS011;63667;49.046;8.468;2022-10-17T13:25:21;7.67;;;4.27;;
142;SDS011;63667;49.046;8.468;2022-10-17T13:27:48;5.27;;;3.97;;
142;SDS011;63667;49.046;8.468;2022-10-17T13:33:00;10.10;;;4.40;;
142;SDS011;63667;49.046;8.468;2022-10-17T13:35:28;8.23;;;4.47;;
142;SDS011;63667;49.046;8.468;2022-10-17T13:37:58;9.90;;;4.10;;
142;SDS011;63667;49.046;8.468;2022-10-17T13:40:27;5.53;;;4.13;;
142;SDS011;63667;49.046;8.468;2022-10-17T13:42:56;11.53;;;4.10;;
142;SDS011;63667;49.046;8.468;2022-10-17T13:48:01;10.43;;;4.33;;
142;SDS011;63667;49.046;8.468;2022-10-17T13:50:31;5.10;;;4.10;;
142;SDS011;63667;49.046;8.468;2022-10-17T13:53:05;10.60;;;4.20;;
142;SDS011;63667;49.046;8.468;2022-10-17T13:55:37;9.40;;;4.20;;
142;SDS011;63667;49.046;8.468;2022-10-17T13:58:15;10.13;;;4.80;;
142;SDS011;63667;49.046;8.468;2022-10-17T14:00:43;9.80;;;5.00;;
142;SDS011;63667;49.046;8.468;2022-10-17T14:03:10;8.30;;;3.93;;
142;SDS011;63667;49.046;8.468;2022-10-17T14:05:57;5.97;;;4.00;;
142;SDS011;63667;49.046;8.468;2022-10-17T14:08:32;9.47;;;4.27;;
142;SDS011;63667;49.046;8.468;2022-10-17T14:10:59;12.23;;;4.97;;
142;SDS011;63667;49.046;8.468;2022-10-17T14:13:26;9.93;;;4.60;;
142;SDS011;63667;49.046;8.468;2022-10-17T14:15:59;10.00;;;4.23;;
142;SDS011;63667;49.046;8.468;2022-10-17T14:18:32;6.93;;;4.53;;
142;SDS011;63667;49.046;8.468;2022-10-17T14:21:00;9.30;;;4.47;;
142;SDS011;63667;49.046;8.468;2022-10-17T14:26:27;19.90;;;4.70;;
142;SDS011;63667;49.046;8.468;2022-10-17T14:31:34;9.07;;;4.70;;
142;SDS011;63667;49.046;8.468;2022-10-17T14:34:02;8.33;;;4.33;;
142;SDS011;63667;49.046;8.468;2022-10-17T14:36:30;9.77;;;4.80;;
142;SDS011;63667;49.046;8.468;2022-10-17T14:39:04;20.00;;;5.00;;
142;SDS011;63667;49.046;8.468;2022-10-17T14:41:33;6.80;;;4.60;;
142;SDS011;63667;49.046;8.468;2022-10-17T14:44:03;9.93;;;5.03;;
142;SDS011;63667;49.046;8.468;2022-10-17T14:46:35;7.13;;;4.80;;
142;SDS011;63667;49.046;8.468;2022-10-17T14:49:06;11.90;;;5.40;;
142;SDS011;63667;49.046;8.468;2022-10-17T14:52:07;8.50;;;5.03;;
142;SDS011;63667;49.046;8.468;2022-10-17T14:54:35;11.83;;;5.87;;
142;SDS011;63667;49.046;8.468;2022-10-17T14:57:16;6.93;;;4.43;;
142;SDS011;63667;49.046;8.468;2022-10-17T14:59:54;13.63;;;4.80;;
142;SDS011;63667;49.046;8.468;2022-10-17T15:02:22;5.17;;;3.90;;
142;SDS011;63667;49.046;8.468;2022-10-17T15:04:50;8.70;;;4.70;;
142;SDS011;63667;49.046;8.468;2022-10-17T15:07:17;9.27;;;4.80;;
142;SDS011;63667;49.046;8.468;2022-10-17T15:09:46;7.40;;;4.70;;
142;SDS011;63667;49.046;8.468;2022-10-17T15:12:14;6.63;;;4.33;;
142;SDS011;63667;49.046;8.468;2022-10-17T15:14:43;12.33;;;4.60;;
142;SDS011;63667;49.046;8.468;2022-10-17T15:17:20;7.47;;;4.97;;
142;SDS011;63667;49.046;8.468;2022-10-17T15:19:51;7.43;;;4.87;;
142;SDS011;63667;49.046;8.468;2022-10-17T15:22:19;8.03;;;4.80;;
142;SDS011;63667;49.046;8.468;2022-10-17T15:24:45;10.73;;;3.90;;
142;SDS011;63667;49.046;8.468;2022-10-17T15:27:15;8.03;;;4.40;;
142;SDS011;63667;49.046;8.468;2022-10-17T15:29:45;6.27;;;4.23;;
142;SDS011;63667;49.046;8.468;2022-10-17T15:32:11;8.07;;;4.83;;
142;SDS011;63667;49.046;8.468;2022-10-17T15:34:38;7.90;;;4.70;;
142;SDS011;63667;49.046;8.468;2022-10-17T15:37:05;11.40;;;4.67;;
142;SDS011;63667;49.046;8.468;2022-10-17T15:39:38;7.63;;;4.50;;
142;SDS011;63667;49.046;8.468;2022-10-17T15:42:07;11.90;;;4.87;;
142;SDS011;63667;49.046;8.468;2022-10-17T15:44:36;10.33;;;4.60;;
142;SDS011;63667;49.046;8.468;2022-10-17T15:47:02;8.53;;;5.00;;
142;SDS011;63667;49.046;8.468;2022-10-17T15:49:28;6.30;;;4.47;;
142;SDS011;63667;49.046;8.468;2022-10-17T15:51:54;7.93;;;4.60;;
142;SDS011;63667;49.046;8.468;2022-10-17T15:54:20;7.93;;;5.00;;
142;SDS011;63667;49.046;8.468;2022-10-17T15:56:48;9.50;;;5.17;;
142;SDS011;63667;49.046;8.468;2022-10-17T15:59:20;6.43;;;4.30;;
142;SDS011;63667;49.046;8.468;2022-10-17T16:01:49;9.57;;;4.87;;
142;SDS011;63667;49.046;8.468;2022-10-17T16:04:19;7.93;;;4.60;;
142;SDS011;63667;49.046;8.468;2022-10-17T16:06:47;10.00;;;5.03;;
142;SDS011;63667;49.046;8.468;2022-10-17T16:09:14;9.90;;;5.40;;
142;SDS011;63667;49.046;8.468;2022-10-17T16:11:40;12.10;;;5.87;;
142;SDS011;63667;49.046;8.468;2022-10-17T16:14:12;13.20;;;5.63;;
142;SDS011;63667;49.046;8.468;2022-10-17T16:16:39;9.57;;;5.20;;
142;SDS011;63667;49.046;8.468;2022-10-17T16:19:06;13.57;;;6.20;;
142;SDS011;63667;49.046;8.468;2022-10-17T16:21:34;8.27;;;5.40;;
142;SDS011;63667;49.046;8.468;2022-10-17T16:24:03;12.70;;;6.10;;
142;SDS011;63667;49.046;8.468;2022-10-17T16:26:30;25.20;;;5.30;;
142;SDS011;63667;49.046;8.468;2022-10-17T16:28:56;29.63;;;5.63;;
142;SDS011;63667;49.046;8.468;2022-10-17T16:31:30;16.17;;;6.30;;
142;SDS011;63667;49.046;8.468;2022-10-17T16:33:59;8.53;;;5.33;;
142;SDS011;63667;49.046;8.468;2022-10-17T16:36:26;18.77;;;5.57;;
142;SDS011;63667;49.046;8.468;2022-10-17T16:38:53;16.43;;;5.33;;
142;SDS011;63667;49.046;8.468;2022-10-17T16:41:21;15.67;;;5.70;;
142;SDS011;63667;49.046;8.468;2022-10-17T16:43:49;15.23;;;5.83;;
142;SDS011;63667;49.046;8.468;2022-10-17T16:46:17;9.83;;;5.73;;
142;SDS011;63667;49.046;8.468;2022-10-17T16:48:44;10.97;;;5.43;;
142;SDS011;63667;49.046;8.468;2022-10-17T16:51:11;33.23;;;6.47;;
142;SDS011;63667;49.046;8.468;2022-10-17T16:53:40;8.60;;;5.50;;
142;SDS011;63667;49.046;8.468;2022-10-17T16:56:13;15.77;;;6.30;;
142;SDS011;63667;49.046;8.468;2022-10-17T16:58:43;16.20;;;5.27;;
142;SDS011;63667;49.046;8.468;2022-10-17T17:01:11;17.93;;;6.40;;
142;SDS011;63667;49.046;8.468;2022-10-17T17:03:43;13.87;;;6.37;;
142;SDS011;63667;49.046;8.468;2022-10-17T17:06:21;17.80;;;5.90;;
142;SDS011;63667;49.046;8.468;2022-10-17T17:08:51;14.17;;;6.23;;
142;SDS011;63667;49.046;8.468;2022-10-17T17:11:19;14.37;;;5.20;;
142;SDS011;63667;49.046;8.468;2022-10-17T17:13:46;18.23;;;5.23;;
142;SDS011;63667;49.046;8.468;2022-10-17T17:16:14;18.23;;;6.00;;
142;SDS011;63667;49.046;8.468;2022-10-17T17:18:49;15.90;;;5.53;;
142;SDS011;63667;49.046;8.468;2022-10-17T17:21:29;18.00;;;4.67;;
142;SDS011;63667;49.046;8.468;2022-10-17T17:23:57;17.00;;;5.73;;
142;SDS011;63667;49.046;8.468;2022-10-17T17:26:25;13.97;;;5.93;;